createdAt,value
2023-04-14T00:02:32.190Z,100609.59
2023-04-14T00:05:02.408Z,100606.09
2023-04-14T00:07:32.501Z,100602.09
2023-04-14T00:10:02.459Z,100597.28
2023-04-14T00:12:32.519Z,100595.69
2023-04-14T00:15:02.370Z,100597.41
2023-04-14T00:17:35.102Z,100600.72
2023-04-14T00:20:05.130Z,100598.91
2023-04-14T00:22:35.210Z,100607.97
2023-04-14T00:25:05.282Z,100604.56
2023-04-14T00:27:35.579Z,100608.16
2023-04-14T00:30:05.773Z,100610.19
2023-04-14T00:32:38.364Z,100620.00
2023-04-14T00:35:09.178Z,100618.19
2023-04-14T00:37:39.074Z,100617.19
2023-04-14T00:40:12.848Z,100620.47
2023-04-14T00:42:47.182Z,100622.19
2023-04-14T00:45:18.139Z,100625.78
2023-04-14T00:47:52.806Z,100634.81
2023-04-14T00:50:24.681Z,100628.38
2023-04-14T00:52:55.674Z,100627.38
2023-04-14T00:55:25.739Z,100631.78
2023-04-14T00:57:55.881Z,100632.38
2023-04-14T01:00:25.983Z,100634.09
2023-04-14T01:02:58.608Z,100635.75
2023-04-14T01:05:28.546Z,100640.97
2023-04-14T01:07:58.630Z,100644.56
2023-04-14T01:10:34.149Z,100644.66
2023-04-14T01:13:23.777Z,100654.53
2023-04-14T01:16:00.721Z,100661.13
2023-04-14T01:18:41.887Z,100665.53
2023-04-14T01:21:16.464Z,100663.41
2023-04-14T01:24:06.555Z,100659.09
2023-04-14T01:26:37.240Z,100662.91
2023-04-14T01:29:42.417Z,100662.47
2023-04-14T01:32:17.767Z,100661.88
2023-04-14T01:34:53.702Z,100660.81
2023-04-14T01:37:34.310Z,100662.16
2023-04-14T01:40:11.450Z,100664.88
2023-04-14T01:42:46.674Z,100663.88
2023-04-14T01:45:21.746Z,100661.75
2023-04-14T01:47:55.661Z,100668.03
2023-04-14T01:50:26.677Z,100665.13
2023-04-14T01:52:57.968Z,100665.41
2023-04-14T01:55:30.706Z,100670.31
2023-04-14T01:58:01.761Z,100660.09
2023-04-14T02:00:32.675Z,100669.28
2023-04-14T02:03:07.094Z,100655.84
2023-04-14T02:05:39.897Z,100661.56
2023-04-14T02:08:14.359Z,100662.41
2023-04-14T02:10:51.232Z,100668.22
2023-04-14T02:13:22.736Z,100678.28
2023-04-14T02:15:53.988Z,100673.22
2023-04-14T02:18:26.734Z,100676.78
2023-04-14T02:20:59.309Z,100683.28
2023-04-14T02:23:29.735Z,100677.38
2023-04-14T02:26:04.667Z,100675.78
2023-04-14T02:28:39.207Z,100676.66
2023-04-14T02:31:12.998Z,100685.59
2023-04-14T02:33:47.381Z,100683.78
2023-04-14T02:36:21.817Z,100688.38
2023-04-14T02:38:59.037Z,100693.22
2023-04-14T02:41:32.616Z,100696.22
2023-04-14T02:44:10.287Z,100693.81
2023-04-14T02:46:49.136Z,100696.81
2023-04-14T02:49:23.233Z,100700.81
2023-04-14T02:51:55.085Z,100697.81
2023-04-14T02:54:26.628Z,100694.03
2023-04-14T02:56:57.646Z,100695.44
2023-04-14T02:59:29.472Z,100697.63
2023-04-14T03:02:02.529Z,100698.19
2023-04-14T03:04:38.508Z,100698.25
2023-04-14T03:07:08.836Z,100691.03
2023-04-14T03:09:40.293Z,100698.06
2023-04-14T03:12:14.383Z,100702.97
2023-04-14T03:14:46.040Z,100702.75
2023-04-14T03:17:18.582Z,100705.19
2023-04-14T03:19:53.412Z,100698.78
2023-04-14T03:22:26.887Z,100694.75
2023-04-14T03:24:59.058Z,100693.72
2023-04-14T03:27:31.774Z,100696.97
2023-04-14T03:30:05.548Z,100694.28
2023-04-14T03:32:42.231Z,100692.97
2023-04-14T03:35:17.367Z,100698.66
2023-04-14T03:37:51.056Z,100686.25
2023-04-14T03:40:21.588Z,100684.66
2023-04-14T03:42:52.839Z,100695.44
2023-04-14T03:45:24.345Z,100690.34
2023-04-14T03:47:58.086Z,100696.00
2023-04-14T03:50:37.766Z,100699.00
2023-04-14T03:53:09.382Z,100699.78
2023-04-14T03:55:40.301Z,100704.59
2023-04-14T03:58:12.165Z,100705.94
2023-04-14T04:00:42.854Z,100702.41
2023-04-14T04:03:13.413Z,100707.81
2023-04-14T04:05:47.029Z,100699.22
2023-04-14T04:08:18.761Z,100706.50
2023-04-14T04:10:51.619Z,100704.38
2023-04-14T04:13:24.698Z,100704.94
2023-04-14T04:15:55.805Z,100703.91
2023-04-14T04:18:29.130Z,100709.84
2023-04-14T04:21:03.183Z,100713.41
2023-04-14T04:23:36.433Z,100712.38
2023-04-14T04:26:06.533Z,100725.31
2023-04-14T04:28:36.826Z,100723.19
2023-04-14T04:31:08.940Z,100721.03
2023-04-14T04:33:39.480Z,100714.59
2023-04-14T04:36:13.340Z,100728.34
2023-04-14T04:38:43.227Z,100725.94
2023-04-14T04:41:24.281Z,100729.75
2023-04-14T04:43:54.317Z,100726.00
2023-04-14T04:46:47.274Z,100728.47
2023-04-14T04:49:17.908Z,100730.38
2023-04-14T04:51:51.292Z,100731.97
2023-04-14T04:54:21.394Z,100734.16
2023-04-14T04:56:51.423Z,100722.84
2023-04-14T04:59:21.425Z,100728.22
2023-04-14T05:01:51.622Z,100728.75
2023-04-14T05:04:21.855Z,100731.97
2023-04-14T05:06:55.466Z,100735.16
2023-04-14T05:09:25.576Z,100735.16
2023-04-14T05:11:56.217Z,100740.84
2023-04-14T05:14:27.712Z,100743.03
2023-04-14T05:16:57.860Z,100742.50
2023-04-14T05:19:27.998Z,100733.59
2023-04-14T05:22:00.622Z,100727.69
2023-04-14T05:24:30.616Z,100723.91
2023-04-14T05:27:13.825Z,100730.69
2023-04-14T05:29:44.833Z,100734.19
2023-04-14T05:32:14.872Z,100733.97
2023-04-14T05:34:44.859Z,100730.19
2023-04-14T05:37:18.075Z,100741.75
2023-04-14T05:39:48.011Z,100747.16
2023-04-14T05:42:17.945Z,100737.47
2023-04-14T05:44:47.951Z,100744.75
2023-04-14T05:47:17.776Z,100743.94
2023-04-14T05:49:47.689Z,100743.66
2023-04-14T05:52:21.895Z,100743.38
2023-04-14T05:54:51.822Z,100743.09
2023-04-14T05:57:21.669Z,100742.03
2023-04-14T05:59:51.549Z,100747.13
2023-04-14T06:02:21.552Z,100743.84
2023-04-14T06:04:51.504Z,100740.56
2023-04-14T06:07:24.480Z,100739.69
2023-04-14T06:09:54.343Z,100745.81
2023-04-14T06:12:24.266Z,100739.56
2023-04-14T06:14:54.282Z,100740.75
2023-04-14T06:17:24.379Z,100736.06
2023-04-14T06:19:54.311Z,100732.91
2023-04-14T06:22:29.486Z,100734.56
2023-04-14T06:25:00.205Z,100736.94
2023-04-14T06:27:30.218Z,100736.31
2023-04-14T06:30:03.123Z,100729.75
2023-04-14T06:32:33.373Z,100721.97
2023-04-14T06:35:05.249Z,100716.28
2023-04-14T06:37:37.743Z,100706.22
2023-04-14T06:40:09.095Z,100709.53
2023-04-14T06:42:39.150Z,100711.69
2023-04-14T06:45:10.324Z,100709.94
2023-04-14T06:47:40.659Z,100703.91
2023-04-14T06:50:11.372Z,100704.28
2023-04-14T06:52:44.180Z,100709.41
2023-04-14T06:55:14.175Z,100703.84
2023-04-14T06:57:44.187Z,100707.41
2023-04-14T07:00:15.840Z,100700.94
2023-04-14T07:02:46.202Z,100705.16
2023-04-14T07:05:19.960Z,100693.78
2023-04-14T07:07:57.490Z,100701.91
2023-04-14T07:10:41.596Z,100700.47
2023-04-14T07:13:15.812Z,100690.84
2023-04-14T07:16:01.586Z,100690.47
2023-04-14T07:18:32.956Z,100683.91
2023-04-14T07:21:04.622Z,100680.44
2023-04-14T07:23:41.391Z,100681.63
2023-04-14T07:26:14.722Z,100679.34
2023-04-14T07:32:07.887Z,100677.38
2023-04-14T07:34:37.826Z,100674.81
2023-04-14T07:37:08.034Z,100675.47
2023-04-14T07:39:41.106Z,100669.41
2023-04-14T07:42:11.682Z,100676.47
2023-04-14T07:44:41.715Z,100666.59
2023-04-14T07:47:12.159Z,100665.16
2023-04-14T07:49:42.168Z,100671.06
2023-04-14T07:52:12.866Z,100673.47
2023-04-14T07:54:46.052Z,100665.59
2023-04-14T07:57:16.004Z,100671.59
2023-04-14T07:59:46.099Z,100665.09
2023-04-14T08:02:16.289Z,100667.06
2023-04-14T08:04:46.401Z,100663.09
2023-04-14T08:07:16.464Z,100658.00
2023-04-14T08:09:49.120Z,100656.06
2023-04-14T08:12:19.192Z,100652.28
2023-04-14T08:14:49.658Z,100652.97
2023-04-14T08:17:19.834Z,100654.56
2023-04-14T08:19:49.869Z,100648.34
2023-04-14T08:22:20.034Z,100653.91
2023-04-14T08:24:52.728Z,100651.44
2023-04-14T08:27:22.609Z,100647.63
2023-04-14T08:29:52.699Z,100642.59
2023-04-14T08:32:22.573Z,100641.81
2023-04-14T08:35:35.617Z,100643.19
2023-04-14T08:37:42.557Z,100640.16
2023-04-14T08:40:18.016Z,100645.19
2023-04-14T08:42:49.130Z,100633.47
2023-04-14T08:45:20.384Z,100641.84
2023-04-14T08:47:54.720Z,100638.38
2023-04-14T08:50:28.061Z,100639.03
2023-04-14T08:52:59.734Z,100636.72
2023-04-14T08:55:35.842Z,100636.66
2023-04-14T08:58:07.683Z,100634.97
2023-04-14T09:00:38.844Z,100636.06
2023-04-14T09:03:10.176Z,100633.47
2023-04-14T09:05:42.266Z,100629.31
2023-04-14T09:08:12.411Z,100637.13
2023-04-14T09:10:48.140Z,100624.50
2023-04-14T09:13:21.106Z,100622.81
2023-04-14T09:15:52.692Z,100626.22
2023-04-14T09:18:23.154Z,100627.03
2023-04-14T09:21:30.471Z,100612.31
2023-04-14T09:23:43.236Z,100614.16
2023-04-14T09:26:16.572Z,100614.13
2023-04-14T09:28:46.490Z,100612.25
2023-04-14T09:31:19.415Z,100616.53
2023-04-14T09:33:55.955Z,100612.63
2023-04-14T09:36:29.622Z,100606.34
2023-04-14T09:39:07.201Z,100605.81
2023-04-14T09:44:28.258Z,100605.38
2023-04-14T09:47:05.441Z,100608.31
2023-04-14T09:49:35.920Z,100603.28
2023-04-14T09:52:07.882Z,100603.44
2023-04-14T09:54:38.502Z,100608.06
2023-04-14T09:57:11.709Z,100603.81
2023-04-14T09:59:42.440Z,100601.63
2023-04-14T10:02:13.471Z,100602.50
2023-04-14T10:04:43.519Z,100597.13
2023-04-14T10:07:13.726Z,100601.75
2023-04-14T10:09:43.592Z,100593.91
2023-04-14T10:12:19.542Z,100594.78
2023-04-14T10:14:49.426Z,100591.78
2023-04-14T10:17:20.094Z,100588.22
2023-04-14T10:19:52.888Z,100594.03
2023-04-14T10:22:24.136Z,100582.72
2023-04-14T10:24:55.315Z,100583.44
2023-04-14T10:27:30.858Z,100581.88
2023-04-14T10:30:01.488Z,100580.69
2023-04-14T10:32:36.044Z,100577.59
2023-04-14T10:35:08.983Z,100573.00
2023-04-14T10:37:39.507Z,100566.44
2023-04-14T10:40:10.940Z,100560.03
2023-04-14T10:43:16.244Z,100558.38
2023-04-14T10:45:56.727Z,100558.09
2023-04-14T10:48:28.833Z,100546.75
2023-04-14T10:51:02.012Z,100538.50
2023-04-14T10:53:38.880Z,100533.41
2023-04-14T10:56:09.338Z,100542.31
2023-04-14T10:58:42.577Z,100536.19
2023-04-14T11:01:26.497Z,100537.53
2023-04-14T11:03:57.942Z,100538.78
2023-04-14T11:06:53.412Z,100528.59
2023-04-14T11:09:37.326Z,100516.59
2023-04-14T11:12:09.657Z,100511.72
2023-04-14T11:14:42.208Z,100511.81
2023-04-14T11:17:12.815Z,100509.53
2023-04-14T11:19:43.176Z,100506.41
2023-04-14T11:22:13.332Z,100504.41
2023-04-14T11:24:43.779Z,100507.13
2023-04-14T11:27:15.719Z,100499.63
2023-04-14T11:29:51.590Z,100516.13
2023-04-14T11:32:23.736Z,100500.44
2023-04-14T11:34:53.744Z,100502.44
2023-04-14T11:37:27.278Z,100503.88
2023-04-14T11:39:57.356Z,100493.69
2023-04-14T11:42:28.099Z,100495.34
2023-04-14T11:45:03.528Z,100495.28
2023-04-14T11:47:33.709Z,100484.25
2023-04-14T11:50:06.005Z,100487.88
2023-04-14T11:52:36.774Z,100492.22
2023-04-14T11:55:07.319Z,100490.63
2023-04-14T11:57:40.418Z,100489.06
2023-04-14T12:00:14.993Z,100481.59
2023-04-14T12:02:47.334Z,100478.03
2023-04-14T12:05:23.092Z,100480.00
2023-04-14T12:07:53.666Z,100481.59
2023-04-14T12:10:23.889Z,100474.09
2023-04-14T12:13:01.869Z,100487.47
2023-04-14T12:15:37.183Z,100479.22
2023-04-14T12:18:10.419Z,100471.31
2023-04-14T12:20:45.503Z,100471.75
2023-04-14T12:23:16.020Z,100469.34
2023-04-14T12:25:48.462Z,100463.78
2023-04-14T12:28:20.607Z,100471.59
2023-04-14T12:30:59.689Z,100470.72
2023-04-14T12:33:30.803Z,100463.63
2023-04-14T12:36:05.211Z,100459.00
2023-04-14T12:38:36.718Z,100458.25
2023-04-14T12:41:06.934Z,100462.97
2023-04-14T12:43:38.829Z,100455.06
2023-04-14T12:46:11.911Z,100451.09
2023-04-14T12:48:45.249Z,100458.22
2023-04-14T12:51:16.772Z,100440.97
2023-04-14T12:53:48.275Z,100449.25
2023-04-14T12:56:20.004Z,100440.59
2023-04-14T12:59:00.713Z,100435.47
2023-04-14T13:01:33.587Z,100443.72
2023-04-14T13:04:04.688Z,100440.97
2023-04-14T13:06:35.288Z,100434.69
2023-04-14T13:09:05.254Z,100433.09
2023-04-14T13:11:35.582Z,100433.44
2023-04-14T13:14:06.602Z,100429.50
2023-04-14T13:16:39.637Z,100425.22
2023-04-14T13:19:09.883Z,100426.03
2023-04-14T13:21:41.209Z,100416.56
2023-04-14T13:24:11.385Z,100422.88
2023-04-14T13:26:41.533Z,100419.38
2023-04-14T13:29:13.497Z,100409.50
2023-04-14T13:31:46.183Z,100417.38
2023-04-14T13:34:16.918Z,100405.94
2023-04-14T13:36:47.120Z,100401.63
2023-04-14T13:39:17.044Z,100407.91
2023-04-14T13:41:47.092Z,100410.66
2023-04-14T13:44:18.780Z,100408.28
2023-04-14T13:46:53.989Z,100402.38
2023-04-14T13:49:24.168Z,100397.22
2023-04-14T13:51:55.495Z,100389.72
2023-04-14T13:54:25.778Z,100398.44
2023-04-14T13:56:58.734Z,100393.69
2023-04-14T13:59:29.703Z,100391.28
2023-04-14T14:02:05.151Z,100392.00
2023-04-14T14:04:38.285Z,100374.53
2023-04-14T14:07:09.788Z,100381.94
2023-04-14T14:09:39.765Z,100378.72
2023-04-14T14:12:09.827Z,100379.03
2023-04-14T14:14:40.954Z,100376.72
2023-04-14T14:17:13.488Z,100371.25
2023-04-14T14:19:43.679Z,100374.06
2023-04-14T14:22:13.648Z,100374.50
2023-04-14T14:24:43.769Z,100372.91
2023-04-14T14:27:14.410Z,100377.59
2023-04-14T14:29:44.331Z,100372.06
2023-04-14T14:32:17.101Z,100364.19
2023-04-14T14:34:47.767Z,100372.84
2023-04-14T14:37:18.649Z,100371.34
2023-04-14T14:39:48.668Z,100365.88
2023-04-14T14:42:18.701Z,100364.34
2023-04-14T14:44:48.749Z,100354.81
2023-04-14T14:47:21.912Z,100361.47
2023-04-14T14:49:59.440Z,100366.22
2023-04-14T14:52:34.355Z,100349.94
2023-04-14T14:55:05.266Z,100352.69
2023-04-14T14:57:35.362Z,100356.13
2023-04-14T15:00:08.059Z,100348.25
2023-04-14T15:02:41.471Z,100352.16
2023-04-14T15:05:12.351Z,100346.56
2023-04-14T15:07:42.672Z,100339.34
2023-04-14T15:10:12.743Z,100335.84
2023-04-14T15:12:43.776Z,100342.56
2023-04-14T15:15:14.708Z,100343.38
2023-04-14T15:17:47.410Z,100341.44
2023-04-14T15:20:17.443Z,100343.38
2023-04-14T15:22:47.435Z,100346.16
2023-04-14T15:25:17.453Z,100335.31
2023-04-14T15:27:48.537Z,100344.47
2023-04-14T15:30:18.815Z,100328.31
2023-04-14T15:32:51.300Z,100331.78
2023-04-14T15:35:21.644Z,100334.00
2023-04-14T15:37:51.588Z,100332.53
2023-04-14T15:40:22.161Z,100338.31
2023-04-14T15:42:52.445Z,100343.19
2023-04-14T15:45:22.550Z,100335.34
2023-04-14T15:47:55.037Z,100329.06
2023-04-14T15:50:25.187Z,100327.88
2023-04-14T15:52:56.078Z,100330.63
2023-04-14T15:55:26.233Z,100325.13
2023-04-14T15:57:56.172Z,100327.09
2023-04-14T16:00:26.525Z,100322.38
2023-04-14T16:03:01.361Z,100325.13
2023-04-14T16:05:31.655Z,100329.84
2023-04-14T16:08:01.622Z,100329.84
2023-04-14T16:10:32.040Z,100327.88
2023-04-14T16:13:02.135Z,100317.25
2023-04-14T16:15:32.171Z,100319.59
2023-04-14T16:18:04.872Z,100325.94
2023-04-14T16:20:34.915Z,100319.22
2023-04-14T16:23:04.874Z,100322.00
2023-04-14T16:25:34.934Z,100324.34
2023-04-14T16:28:05.308Z,100326.69
2023-04-14T16:30:35.784Z,100332.22
2023-04-14T16:33:09.144Z,100330.63
2023-04-14T16:35:39.133Z,100323.91
2023-04-14T16:38:09.147Z,100327.44
2023-04-14T16:40:39.376Z,100330.56
2023-04-14T16:43:09.772Z,100325.81
2023-04-14T16:45:39.667Z,100312.41
2023-04-14T16:48:12.143Z,100325.78
2023-04-14T16:50:42.818Z,100322.25
2023-04-14T16:53:12.779Z,100319.09
2023-04-14T16:55:42.909Z,100320.66
2023-04-14T16:58:12.791Z,100321.84
2023-04-14T17:00:42.665Z,100317.91
2023-04-14T17:03:15.329Z,100320.25
2023-04-14T17:05:45.562Z,100313.94
2023-04-14T17:08:15.656Z,100331.22
2023-04-14T17:10:45.822Z,100328.06
2023-04-14T17:13:15.807Z,100330.00
2023-04-14T17:15:53.223Z,100327.97
2023-04-14T17:18:31.457Z,100324.75
2023-04-14T17:21:01.410Z,100323.09
2023-04-14T17:23:32.006Z,100328.97
2023-04-14T17:26:02.770Z,100324.53
2023-04-14T17:28:33.941Z,100335.47
2023-04-14T17:31:04.281Z,100333.91
2023-04-14T17:33:36.779Z,100325.25
2023-04-14T17:36:08.809Z,100340.97
2023-04-14T17:38:39.068Z,100343.22
2023-04-14T17:41:10.403Z,100345.53
2023-04-14T17:43:41.677Z,100347.50
2023-04-14T17:46:12.077Z,100348.09
2023-04-14T17:48:45.107Z,100346.72
2023-04-14T17:51:15.592Z,100345.78
2023-04-14T17:53:45.489Z,100349.97
2023-04-14T17:56:16.016Z,100359.69
2023-04-14T17:58:48.268Z,100352.47
2023-04-14T18:01:18.255Z,100353.19
2023-04-14T18:03:50.927Z,100352.31
2023-04-14T18:06:21.256Z,100358.94
2023-04-14T18:08:51.776Z,100361.13
2023-04-14T18:11:21.639Z,100364.25
2023-04-14T18:13:51.566Z,100366.19
2023-04-14T18:16:21.715Z,100362.22
2023-04-14T18:18:54.350Z,100362.09
2023-04-14T18:21:24.668Z,100369.06
2023-04-14T18:26:27.810Z,100382.16
2023-04-14T18:28:59.139Z,100381.19
2023-04-14T18:31:29.740Z,100393.78
2023-04-14T18:34:05.292Z,100397.44
2023-04-14T18:36:35.797Z,100400.00
2023-04-14T18:39:07.265Z,100408.50
2023-04-14T18:41:37.553Z,100407.66
2023-04-14T18:44:07.848Z,100423.09
2023-04-14T18:46:38.120Z,100419.38
2023-04-14T18:49:11.208Z,100417.41
2023-04-14T18:51:41.502Z,100422.22
2023-04-14T18:54:13.212Z,100421.78
2023-04-14T18:56:43.423Z,100431.78
2023-04-14T18:59:13.639Z,100429.94
2023-04-14T19:01:44.094Z,100435.41
2023-04-14T19:04:16.643Z,100427.06
2023-04-14T19:06:46.965Z,100436.25
2023-04-14T19:09:16.849Z,100423.91
2023-04-14T19:11:48.038Z,100435.47
2023-04-14T19:14:18.058Z,100440.03
2023-04-14T19:16:48.258Z,100447.28
2023-04-14T19:19:20.674Z,100447.53
2023-04-14T19:21:50.557Z,100441.63
2023-04-14T19:24:20.411Z,100447.47
2023-04-14T19:26:50.588Z,100449.41
2023-04-14T19:29:20.388Z,100444.72
2023-04-14T19:31:50.342Z,100445.50
2023-04-14T19:34:22.964Z,100451.22
2023-04-14T19:36:53.123Z,100449.22
2023-04-14T19:39:23.140Z,100459.25
2023-04-14T19:41:53.003Z,100458.38
2023-04-14T19:44:22.829Z,100456.75
2023-04-14T19:46:52.906Z,100450.25
2023-04-14T19:49:26.482Z,100457.88
2023-04-14T19:51:56.261Z,100458.25
2023-04-14T19:54:26.610Z,100461.41
2023-04-14T19:56:57.176Z,100457.09
2023-04-14T19:59:29.668Z,100454.72
2023-04-14T20:02:01.135Z,100448.47
2023-04-14T20:04:33.880Z,100450.72
2023-04-14T20:07:06.579Z,100462.00
2023-04-14T20:09:36.507Z,100458.50
2023-04-14T20:12:06.619Z,100452.94
2023-04-14T20:14:36.414Z,100448.94
2023-04-14T20:17:06.458Z,100456.28
2023-04-14T20:19:39.103Z,100456.50
2023-04-14T20:22:09.610Z,100454.03
2023-04-14T20:24:39.792Z,100460.97
2023-04-14T20:27:13.576Z,100464.75
2023-04-14T20:29:43.475Z,100463.81
2023-04-14T20:32:13.959Z,100462.91
2023-04-14T20:34:46.473Z,100464.31
2023-04-14T20:37:16.753Z,100459.53
2023-04-14T20:39:46.568Z,100458.63
2023-04-14T20:42:16.678Z,100460.13
2023-04-14T20:44:46.657Z,100469.34
2023-04-14T20:47:17.244Z,100467.19
2023-04-14T20:49:49.710Z,100463.94
2023-04-14T20:52:19.773Z,100468.34
2023-04-14T20:54:49.596Z,100470.06
2023-04-14T20:57:20.351Z,100467.91
2023-04-14T20:59:50.524Z,100468.81
2023-04-14T21:02:21.082Z,100466.66
2023-04-14T21:04:54.125Z,100469.16
2023-04-14T21:07:23.992Z,100472.16
2023-04-14T21:09:53.919Z,100475.78
2023-04-14T21:12:23.748Z,100481.00
2023-04-14T21:15:44.194Z,100476.09
2023-04-14T21:17:45.903Z,100473.94
2023-04-14T21:20:19.123Z,100477.56
2023-04-14T21:22:49.069Z,100472.28
2023-04-14T21:25:19.208Z,100478.28
2023-04-14T21:27:49.698Z,100474.97
2023-04-14T21:30:20.975Z,100477.91
2023-04-14T21:32:50.907Z,100477.34
2023-04-14T21:35:23.516Z,100487.66
2023-04-14T21:37:53.522Z,100479.22
2023-04-14T21:40:23.677Z,100488.28
2023-04-14T21:42:54.168Z,100482.22
2023-04-14T21:45:24.321Z,100487.88
2023-04-14T21:47:56.649Z,100487.28
2023-04-14T21:50:30.981Z,100485.13
2023-04-14T21:53:02.747Z,100481.31
2023-04-14T21:55:33.318Z,100479.44
2023-04-14T21:58:04.698Z,100479.97
2023-04-14T22:00:34.899Z,100486.44
2023-04-14T22:03:04.909Z,100482.78
2023-04-14T22:05:40.720Z,100487.28
2023-04-14T22:08:12.275Z,100491.78
2023-04-14T22:10:43.541Z,100489.25
2023-04-14T22:13:14.811Z,100495.22
2023-04-14T22:15:45.674Z,100494.63
2023-04-14T22:18:17.324Z,100491.63
2023-04-14T22:20:50.339Z,100494.53
2023-04-14T22:23:20.385Z,100497.84
2023-04-14T22:25:51.215Z,100494.22
2023-04-14T22:28:21.078Z,100497.09
2023-04-14T22:30:51.273Z,100491.84
2023-04-14T22:33:21.164Z,100492.06
2023-04-14T22:35:53.793Z,100491.09
2023-04-14T22:38:23.654Z,100501.03
2023-04-14T22:40:53.613Z,100497.81
2023-04-14T22:43:23.458Z,100498.50
2023-04-14T22:45:53.619Z,100493.56
2023-04-14T22:48:23.810Z,100492.59
2023-04-14T22:50:56.272Z,100501.88
2023-04-14T22:53:26.735Z,100500.16
2023-04-14T22:55:58.284Z,100498.53
2023-04-14T22:58:32.155Z,100492.63
2023-04-14T23:01:15.497Z,100506.06
2023-04-14T23:03:53.002Z,100502.72
2023-04-14T23:06:26.046Z,100503.56
2023-04-14T23:08:55.886Z,100502.44
2023-04-14T23:11:25.709Z,100506.59
2023-04-14T23:13:55.818Z,100502.63
2023-04-14T23:16:26.060Z,100514.13
2023-04-14T23:18:56.687Z,100503.09
2023-04-14T23:21:29.524Z,100509.66
2023-04-14T23:23:59.383Z,100509.19
2023-04-14T23:26:29.826Z,100498.94
2023-04-14T23:28:59.858Z,100510.47
2023-04-14T23:31:30.545Z,100505.19
2023-04-14T23:34:00.439Z,100506.13
2023-04-14T23:36:33.017Z,100512.22
2023-04-14T23:39:05.921Z,100515.25
2023-04-14T23:41:35.939Z,100521.81
2023-04-14T23:44:05.969Z,100510.47
2023-04-14T23:46:36.146Z,100513.16
2023-04-14T23:49:24.606Z,100504.09
2023-04-14T23:51:59.101Z,100503.13
2023-04-14T23:54:31.064Z,100496.91
2023-04-14T23:57:01.207Z,100510.78
2023-04-14T23:59:31.414Z,100507.59
